EGHE/ISC METAR and TAF weather

Enter ICAO airport designator
Station Type Date Time Source
EGHE METAR 2021/04/10 09:20 UTC NOAA

EGHE 100920Z 03021KT 9999 FEW025 08/02 Q1013


Station Type Date Time Source
EGHE Decoded METAR 2021/04/10 09:20 UTC NOAA

Scilly, Saint Mary'S, United Kingdom (EGHE) 49-55N 006-18W 0M
Apr 10, 2021 - 05:20 AM EDT / 2021.04.10 0920 UTC
Wind: from the NNE (030 degrees) at 24 MPH (21 KT):0
Visibility: greater than 7 mile(s):0
Sky conditions: mostly clear
Temperature: 46 F (8 C)
Dew Point: 35 F (2 C)
Relative Humidity: 65%
Pressure (altimeter): 29.91 in. Hg (1013 hPa)
ob: EGHE 100920Z 03021KT 9999 FEW025 08/02 Q1013
cycle: 9

Station Type Date Time Source
EGHE TAF UTC NOAA

Error!

Example: see airport list